Terminal Aerodrome Forecast
Issued by NWS

Home | Current Version | Previous Version | Text Only | Print | Product List | Glossary On
Versions: 1 2 3 4 5 6 7 8 9 10 11 12 13 14 15 16 17 18 19 20 21 22 23 24 25 26 27 28 29 30 31
000
FTUS46 KLOX 221139
TAFSBA
TAF
KSBA 221139Z 2212/2312 VRB03KT 1/2SM FG VV002
     FM221600 14005KT 4SM BR OVC006
     FM221800 17006KT P6SM SCT015
     FM222200 23009KT P6SM SCT250
     FM230400 VRB05KT P6SM SKC
     FM230800 VRB03KT 4SM BR OVC005
     FM231100 VRB03KT 1SM BR OVC002=

USA.gov is the U.S. government's official web portal to all federal, state and local government web resources and services.